Tappan, New York
Current Conditions -  °F | °C
As of 8:56 AM on Wednesday 26 Nov 2014 (Local Time) from KHPN Reporting Station
Light Snow Light Snow  
Wind Chill: 29°   Ceiling: 1000
Heat Index: 35°   Visibility: 2.5mi
Dew Point: 33°   Wind: 7mph
Humidity: 92%   Direction: 10°N
Pressure: 30.1"   Gusts: NA
Location:  41.02°N, 73.95°W
Report Text: KHPN 261356Z 01006KT 2 1/2SM -RASN SCT006 OVC010 02/01 A3010 RMK AO2 SNB06 SLP199 P0008 T00170006
Loading
Personal Weather Stations






























Interactive Weather Map New forecast layout! Learn more

10-Day Weather Forecast

Advertisements
Track Severe Weather on mobile